North Canton, Ohio
Current Conditions -  °F | °C
As of 12:51 PM on Sunday 21 Dec 2014 (Local Time) from KCAK Reporting Station
Haze Haze  
Wind Chill: 25°   Ceiling: 2000
Heat Index: 30°   Visibility: 6mi
Dew Point: 21°   Wind: 5mph
Humidity: 69%   Direction: 190°S
Pressure: 30.26"   Gusts: NA
Location:  40.88°N, 81.4°W
Report Text: KCAK 211751Z 19004KT 6SM HZ OVC020 M01/M06 A3026 RMK AO2 SLP262 T10111061 11006 21017 58014
Loading
Personal Weather Stations






























Interactive Weather Map New forecast layout! Learn more

10-Day Weather Forecast

Advertisements
Track Severe Weather on mobile